Time;durP1;ratioP1;P1;durP2;ratioP2;P2;SDS_P1;SDS_P2;PMS_P1;PMS_P2;Temp;Humidity;BMP_temperature;BMP_pressure;BME280_temperature;BME280_humidity;BME280_pressure;Samples;Min_cycle;Max_cycle;Signal;HPM_P1;HPM_P2
2021/12/18 00:02:08;;;;;;;57.55;27.55;;;8.70;99.90;;;;;;5089627;28;20160;-76
2021/12/18 00:04:34;;;;;;;48.03;26.80;;;8.70;99.90;;;;;;5089517;28;20040;-76
2021/12/18 00:07:01;;;;;;;45.30;25.30;;;8.70;99.90;;;;;;5089827;28;20024;-76
2021/12/18 00:09:29;;;;;;;48.47;26.55;;;8.70;99.90;;;;;;5091293;28;20059;-76
2021/12/18 00:11:55;;;;;;;47.65;26.27;;;8.70;99.90;;;;;;5089626;28;20036;-76
2021/12/18 00:14:20;;;;;;;48.33;25.30;;;8.70;99.90;;;;;;5088974;28;20373;-76
2021/12/18 00:16:46;;;;;;;50.90;27.35;;;8.70;99.90;;;;;;5089795;28;20031;-76
2021/12/18 00:19:12;;;;;;;45.70;25.50;;;8.70;99.90;;;;;;5087758;28;20027;-76
2021/12/18 00:21:37;;;;;;;45.95;25.48;;;8.70;99.90;;;;;;5088727;28;20028;-76
2021/12/18 00:24:06;;;;;;;48.90;25.58;;;8.70;99.90;;;;;;5052781;28;20024;-76
2021/12/18 00:26:32;;;;;;;46.67;25.63;;;8.70;99.90;;;;;;5089713;28;20681;-76
2021/12/18 00:28:58;;;;;;;48.88;26.02;;;8.70;99.90;;;;;;5090142;28;20028;-76
2021/12/18 00:31:23;;;;;;;53.22;28.10;;;8.70;99.90;;;;;;5089714;28;20036;-76
2021/12/18 00:33:49;;;;;;;50.20;27.00;;;8.80;99.90;;;;;;5085132;28;20042;-76
2021/12/18 00:36:15;;;;;;;49.65;26.20;;;8.70;99.90;;;;;;5090317;28;20032;-76
2021/12/18 00:38:41;;;;;;;50.13;27.42;;;8.70;99.90;;;;;;5071974;28;20044;-76
2021/12/18 00:43:39;;;;;;;48.95;26.13;;;8.70;99.90;;;;;;5090609;28;20032;-75
2021/12/18 00:46:04;;;;;;;50.55;25.92;;;8.70;99.90;;;;;;5090908;28;20047;-76
2021/12/18 00:48:30;;;;;;;48.28;25.15;;;8.70;99.90;;;;;;5090072;28;20032;-76
2021/12/18 00:50:57;;;;;;;49.90;24.90;;;8.70;99.90;;;;;;5089931;28;20047;-76
2021/12/18 00:53:23;;;;;;;43.70;24.02;;;8.70;99.90;;;;;;5089183;28;20028;-76
2021/12/18 00:55:51;;;;;;;50.45;26.02;;;8.70;99.90;;;;;;5089350;28;20054;-76
2021/12/18 00:58:18;;;;;;;44.70;23.83;;;8.70;99.90;;;;;;5090330;28;20032;-76
2021/12/18 01:00:44;;;;;;;46.00;23.58;;;8.70;99.90;;;;;;5090094;28;20277;-76
2021/12/18 01:03:20;;;;;;;46.60;24.95;;;8.70;99.90;;;;;;5089395;28;20031;-76
2021/12/18 01:05:47;;;;;;;49.08;25.00;;;8.80;99.90;;;;;;5089126;28;20019;-76
2021/12/18 01:08:13;;;;;;;44.25;23.40;;;8.70;99.90;;;;;;5090344;28;20020;-76
2021/12/18 01:13:16;;;;;;;51.35;25.00;;;8.70;99.90;;;;;;5088717;28;20115;-76
2021/12/18 01:15:49;;;;;;;53.53;26.50;;;8.70;99.90;;;;;;5109925;28;20040;-76
2021/12/18 01:23:44;;;;;;;54.33;25.20;;;8.70;99.90;;;;;;5094689;28;20151;-76
2021/12/18 01:26:10;;;;;;;55.90;27.35;;;8.70;99.90;;;;;;5091924;28;20126;-76
2021/12/18 01:28:36;;;;;;;47.25;23.80;;;8.70;99.90;;;;;;5107423;28;20063;-75
2021/12/18 01:31:02;;;;;;;47.67;24.90;;;8.70;99.90;;;;;;5104713;28;20630;-76
2021/12/18 01:33:28;;;;;;;48.35;24.70;;;8.80;99.90;;;;;;5092084;28;20396;-75
2021/12/18 01:35:55;;;;;;;47.78;24.70;;;8.80;99.90;;;;;;5109975;28;20043;-76
2021/12/18 01:38:22;;;;;;;48.42;24.98;;;8.80;99.90;;;;;;5109962;28;20035;-76
2021/12/18 01:40:48;;;;;;;50.85;25.63;;;8.80;99.90;;;;;;5109610;28;20012;-76
2021/12/18 01:46:20;;;;;;;51.53;26.77;;;8.70;99.90;;;;;;5089967;28;20036;-75
2021/12/18 01:54:11;;;;;;;52.45;24.80;;;8.70;99.90;;;;;;5093008;28;20061;-76
2021/12/18 01:56:37;;;;;;;45.90;23.52;;;8.70;99.90;;;;;;5109537;28;20026;-75
2021/12/18 01:59:02;;;;;;;46.08;23.05;;;8.70;99.90;;;;;;5091794;28;20391;-76
2021/12/18 02:01:28;;;;;;;40.38;22.63;;;8.70;99.90;;;;;;5091115;28;20026;-75
2021/12/18 02:03:54;;;;;;;42.25;21.77;;;8.70;99.90;;;;;;5109856;28;20032;-76
2021/12/18 02:06:21;;;;;;;50.78;23.30;;;8.70;99.90;;;;;;5109775;28;20046;-75
2021/12/18 02:08:47;;;;;;;43.30;21.73;;;8.70;99.90;;;;;;5106239;28;20035;-76
2021/12/18 02:11:28;;;;;;;44.47;22.27;;;8.70;99.90;;;;;;5091485;28;20434;-75
2021/12/18 02:19:34;;;;;;;46.78;21.90;;;8.70;99.90;;;;;;5078217;28;20032;-76
2021/12/18 02:22:21;;;;;;;42.65;21.48;;;8.60;99.90;;;;;;5096317;28;20038;-76
2021/12/18 02:24:46;;;;;;;44.33;21.33;;;8.60;99.90;;;;;;5110819;28;20032;-75
2021/12/18 02:27:12;;;;;;;49.85;22.90;;;8.60;99.90;;;;;;5113343;28;20598;-76
2021/12/18 02:29:39;;;;;;;48.90;22.60;;;8.60;99.90;;;;;;5113735;28;20521;-76
2021/12/18 02:32:06;;;;;;;41.60;19.13;;;8.60;99.90;;;;;;5113231;28;20045;-75
2021/12/18 02:34:34;;;;;;;42.58;20.08;;;8.60;99.90;;;;;;5091858;28;20518;-75
2021/12/18 02:37:05;;;;;;;42.08;20.63;;;8.60;99.90;;;;;;5053577;28;20036;-76
2021/12/18 02:42:28;;;;;;;41.03;20.42;;;8.60;99.90;;;;;;5042015;28;20132;-76
2021/12/18 02:44:53;;;;;;;33.97;18.88;;;8.60;99.90;;;;;;5075161;28;20104;-76
2021/12/18 02:47:19;;;;;;;39.60;18.95;;;8.60;99.90;;;;;;5113545;28;20487;-76
2021/12/18 02:49:49;;;;;;;40.10;18.27;;;8.60;99.90;;;;;;5112882;28;20023;-76
2021/12/18 02:52:16;;;;;;;38.88;18.35;;;8.60;99.90;;;;;;5095120;28;20066;-75
2021/12/18 02:54:43;;;;;;;38.38;19.17;;;8.50;99.90;;;;;;5112823;28;20023;-75
2021/12/18 02:57:10;;;;;;;42.40;18.40;;;8.50;99.90;;;;;;5103046;28;20031;-76
2021/12/18 02:59:48;;;;;;;42.38;20.00;;;8.50;99.90;;;;;;5092295;28;20035;-76
2021/12/18 03:02:16;;;;;;;41.03;18.87;;;8.60;99.90;;;;;;5113039;28;20035;-76
2021/12/18 03:04:44;;;;;;;47.17;20.73;;;8.50;99.90;;;;;;5113206;28;20031;-76
2021/12/18 03:07:12;;;;;;;51.97;20.75;;;8.50;99.90;;;;;;5113238;28;20035;-76
2021/12/18 03:25:58;;;;;;;51.17;22.13;;;8.40;99.90;;;;;;5110945;28;20365;-76
2021/12/18 03:28:25;;;;;;;51.10;21.38;;;8.50;99.90;;;;;;5094918;28;20650;-76
2021/12/18 03:30:51;;;;;;;55.15;21.58;;;8.40;99.90;;;;;;5112083;28;20046;-76
2021/12/18 03:33:17;;;;;;;48.33;20.40;;;8.40;99.90;;;;;;5094053;28;20024;-76
2021/12/18 03:35:43;;;;;;;42.35;19.65;;;8.40;99.90;;;;;;5067937;28;20067;-76
2021/12/18 03:38:10;;;;;;;43.28;18.77;;;8.40;99.90;;;;;;5112334;28;20119;-76
2021/12/18 03:40:36;;;;;;;49.80;20.00;;;8.40;99.90;;;;;;5077938;28;20035;-76
2021/12/18 03:43:02;;;;;;;46.75;20.73;;;8.40;99.90;;;;;;5111716;28;20024;-76
2021/12/18 03:45:28;;;;;;;39.35;18.38;;;8.40;99.90;;;;;;5094013;28;20051;-76
2021/12/18 03:47:54;;;;;;;39.55;17.45;;;8.40;99.90;;;;;;5092500;28;20160;-76
2021/12/18 03:50:21;;;;;;;35.50;17.40;;;8.40;99.90;;;;;;5111795;28;20797;-76
2021/12/18 03:52:47;;;;;;;38.53;17.15;;;8.40;99.90;;;;;;5074133;28;20119;-76
2021/12/18 03:55:13;;;;;;;35.05;14.70;;;8.40;99.90;;;;;;5112142;28;20465;-76
2021/12/18 03:57:39;;;;;;;31.95;15.48;;;8.40;99.90;;;;;;5112024;28;20487;-76
2021/12/18 04:00:08;;;;;;;31.80;15.82;;;8.40;99.90;;;;;;5093911;28;20061;-76
2021/12/18 04:02:34;;;;;;;31.60;15.15;;;8.40;99.90;;;;;;5110529;28;20102;-76
2021/12/18 04:05:00;;;;;;;29.85;15.27;;;8.40;99.90;;;;;;5090924;28;20119;-75
2021/12/18 04:07:25;;;;;;;28.98;14.30;;;8.40;99.90;;;;;;5091598;28;20031;-76
2021/12/18 04:09:51;;;;;;;29.98;14.75;;;8.40;99.90;;;;;;5110128;28;20036;-76
2021/12/18 04:12:17;;;;;;;33.03;14.77;;;8.40;99.90;;;;;;5075156;28;20055;-76
2021/12/18 04:14:43;;;;;;;28.70;14.15;;;8.40;99.90;;;;;;5091979;28;20108;-76
2021/12/18 04:17:08;;;;;;;29.90;14.27;;;8.40;99.90;;;;;;5111280;28;20046;-76
2021/12/18 04:19:35;;;;;;;28.38;13.75;;;8.40;99.90;;;;;;5092105;28;20545;-76
2021/12/18 04:22:01;;;;;;;29.83;13.60;;;8.30;99.90;;;;;;5108397;28;20098;-76
2021/12/18 04:24:26;;;;;;;27.00;13.13;;;8.40;99.90;;;;;;5092149;28;20059;-76
2021/12/18 04:26:52;;;;;;;25.00;11.98;;;8.40;99.90;;;;;;5111504;28;20050;-76
2021/12/18 04:29:18;;;;;;;23.50;11.50;;;8.40;99.90;;;;;;5093043;28;20038;-76
2021/12/18 04:31:44;;;;;;;25.33;12.38;;;8.40;99.90;;;;;;5092733;28;20451;-75
2021/12/18 04:34:09;;;;;;;24.95;12.88;;;8.40;99.90;;;;;;5091257;28;20031;-76
2021/12/18 04:36:35;;;;;;;23.77;11.52;;;8.40;99.90;;;;;;5109539;28;20040;-75
2021/12/18 04:39:01;;;;;;;25.67;12.45;;;8.40;99.90;;;;;;5109486;28;20043;-76
2021/12/18 04:41:48;;;;;;;26.08;12.38;;;8.30;99.90;;;;;;5074797;28;20032;-76
2021/12/18 04:44:14;;;;;;;30.25;13.55;;;8.30;99.90;;;;;;5071492;28;20028;-76
2021/12/18 04:46:40;;;;;;;27.40;12.80;;;8.30;99.90;;;;;;5091633;28;20039;-76
2021/12/18 04:49:06;;;;;;;27.17;12.77;;;8.30;99.90;;;;;;5089063;28;20051;-76
2021/12/18 04:51:31;;;;;;;25.08;12.65;;;8.30;99.90;;;;;;5092584;28;20051;-76
2021/12/18 04:53:57;;;;;;;29.65;12.65;;;8.30;99.90;;;;;;5093082;28;20039;-76
2021/12/18 04:56:23;;;;;;;28.63;13.10;;;8.30;99.90;;;;;;5089715;28;20016;-76
2021/12/18 04:58:48;;;;;;;30.17;13.32;;;8.30;99.90;;;;;;5111122;28;20103;-76
2021/12/18 05:01:15;;;;;;;30.63;13.07;;;8.30;99.90;;;;;;5070014;28;20036;-76
2021/12/18 05:03:42;;;;;;;29.73;13.63;;;8.30;99.90;;;;;;5108693;28;20027;-76
2021/12/18 05:06:07;;;;;;;30.20;13.82;;;8.30;99.90;;;;;;5092755;28;20491;-76
2021/12/18 05:08:33;;;;;;;26.92;12.13;;;8.30;99.90;;;;;;5067499;28;20035;-76
2021/12/18 05:10:59;;;;;;;26.58;11.55;;;8.30;99.90;;;;;;5092180;28;20035;-76
2021/12/18 05:13:24;;;;;;;31.70;12.60;;;8.30;99.90;;;;;;5069633;28;20035;-76
2021/12/18 05:15:50;;;;;;;25.67;11.68;;;8.30;99.90;;;;;;5091936;28;20082;-76
2021/12/18 05:18:15;;;;;;;26.17;11.95;;;8.30;99.90;;;;;;5092134;28;20031;-75
2021/12/18 05:20:41;;;;;;;27.10;12.43;;;8.30;99.90;;;;;;5073634;28;20039;-76
2021/12/18 05:23:07;;;;;;;30.20;12.65;;;8.30;99.90;;;;;;5110669;28;20031;-76
2021/12/18 05:25:33;;;;;;;29.15;12.40;;;8.30;99.90;;;;;;5092520;28;20027;-76
2021/12/18 05:27:58;;;;;;;31.40;12.77;;;8.30;99.90;;;;;;5091906;28;20116;-76
2021/12/18 05:30:24;;;;;;;27.23;12.50;;;8.30;99.90;;;;;;5107408;28;20036;-76
2021/12/18 05:32:50;;;;;;;33.47;13.95;;;8.30;99.90;;;;;;5108208;28;20061;-76
2021/12/18 05:35:16;;;;;;;32.83;14.27;;;8.40;99.90;;;;;;5110790;28;20031;-76
2021/12/18 05:37:51;;;;;;;39.05;14.52;;;8.40;99.90;;;;;;5110769;28;20066;-76
2021/12/18 05:40:22;;;;;;;33.83;14.18;;;8.40;99.90;;;;;;5093310;28;20153;-76
2021/12/18 05:42:50;;;;;;;28.77;13.90;;;8.40;99.90;;;;;;5108400;28;20011;-76
2021/12/18 05:45:17;;;;;;;29.88;13.07;;;8.40;99.90;;;;;;5089851;28;20028;-76
2021/12/18 05:47:43;;;;;;;32.28;14.40;;;8.40;99.90;;;;;;5084783;28;20025;-77
2021/12/18 05:50:11;;;;;;;30.88;13.73;;;8.40;99.90;;;;;;5111551;28;20027;-77
2021/12/18 05:52:37;;;;;;;37.55;13.85;;;8.40;99.90;;;;;;5110233;28;20426;-77
2021/12/18 05:55:04;;;;;;;30.00;13.63;;;8.40;99.90;;;;;;5091075;28;20059;-77
2021/12/18 05:57:29;;;;;;;32.40;14.18;;;8.40;99.90;;;;;;5096454;28;20535;-76
2021/12/18 05:59:55;;;;;;;25.60;12.23;;;8.40;99.90;;;;;;5081426;28;20051;-77
2021/12/18 06:02:21;;;;;;;26.67;12.27;;;8.40;99.90;;;;;;5097494;28;20115;-77
2021/12/18 06:04:47;;;;;;;30.58;12.85;;;8.40;99.90;;;;;;5080993;28;20161;-77
2021/12/18 06:09:58;;;;;;;31.98;13.38;;;8.40;99.90;;;;;;5116415;28;20057;-76
2021/12/18 06:12:24;;;;;;;32.03;13.88;;;8.40;99.90;;;;;;5098219;28;20130;-77
2021/12/18 06:14:50;;;;;;;31.15;13.73;;;8.40;99.90;;;;;;5115687;28;20801;-77
2021/12/18 06:17:15;;;;;;;27.35;11.57;;;8.40;99.90;;;;;;5098301;28;20106;-77
2021/12/18 06:19:41;;;;;;;30.83;12.50;;;8.40;99.90;;;;;;5097802;28;20043;-76
2021/12/18 06:22:07;;;;;;;27.45;11.98;;;8.40;99.90;;;;;;5115427;28;20027;-77
2021/12/18 06:24:33;;;;;;;25.90;11.75;;;8.30;99.90;;;;;;5097715;28;20456;-76
2021/12/18 06:26:58;;;;;;;25.05;11.05;;;8.30;99.90;;;;;;5096532;28;20066;-77
2021/12/18 06:29:24;;;;;;;27.08;11.82;;;8.30;99.90;;;;;;5094415;28;20623;-76
2021/12/18 06:31:50;;;;;;;26.17;10.85;;;8.30;99.90;;;;;;5101379;28;20039;-76
2021/12/18 06:34:16;;;;;;;25.15;11.25;;;8.30;99.90;;;;;;5045586;28;20035;-76
2021/12/18 06:36:42;;;;;;;27.40;11.95;;;8.30;99.90;;;;;;5097274;28;20035;-77
2021/12/18 06:39:08;;;;;;;26.17;11.13;;;8.30;99.90;;;;;;5115698;28;20468;-76
2021/12/18 06:41:34;;;;;;;27.13;11.45;;;8.30;99.90;;;;;;5097465;28;20039;-76
2021/12/18 06:44:00;;;;;;;29.85;12.00;;;8.30;99.90;;;;;;5115933;28;20384;-76
2021/12/18 06:46:26;;;;;;;25.88;11.52;;;8.30;99.90;;;;;;5097748;28;20031;-77
2021/12/18 06:48:51;;;;;;;22.58;10.57;;;8.30;99.90;;;;;;5096957;28;20024;-77
2021/12/18 06:51:18;;;;;;;26.48;11.43;;;8.30;99.90;;;;;;5115691;28;20039;-77
2021/12/18 06:53:44;;;;;;;27.73;11.52;;;8.30;99.90;;;;;;5097528;28;20100;-77
2021/12/18 06:56:10;;;;;;;30.73;11.00;;;8.30;99.90;;;;;;5097400;28;20051;-76
2021/12/18 06:58:35;;;;;;;25.52;10.73;;;8.30;99.90;;;;;;5080506;28;20481;-77
2021/12/18 07:01:01;;;;;;;33.88;11.82;;;8.30;99.90;;;;;;5082415;28;20435;-77
2021/12/18 07:03:27;;;;;;;35.85;12.65;;;8.30;99.90;;;;;;5103310;28;20031;-76
2021/12/18 07:05:53;;;;;;;31.67;12.50;;;8.40;99.90;;;;;;5097416;28;20054;-76
2021/12/18 07:08:18;;;;;;;29.05;11.60;;;8.30;99.90;;;;;;5114835;28;20019;-76
2021/12/18 07:10:44;;;;;;;28.80;12.00;;;8.30;99.90;;;;;;5097618;28;20032;-77
2021/12/18 07:13:11;;;;;;;27.23;11.93;;;8.30;99.90;;;;;;5114907;28;20104;-76
2021/12/18 07:15:37;;;;;;;44.38;13.98;;;8.30;99.90;;;;;;5114905;28;20047;-76
2021/12/18 07:18:03;;;;;;;36.78;12.50;;;8.30;99.90;;;;;;5114886;28;20031;-76
2021/12/18 07:20:29;;;;;;;33.75;12.50;;;8.30;99.90;;;;;;5096716;28;20024;-77
2021/12/18 07:22:55;;;;;;;30.40;11.55;;;8.30;99.90;;;;;;5096517;28;20030;-77
2021/12/18 07:25:21;;;;;;;29.60;11.65;;;8.30;99.90;;;;;;5096957;28;20050;-76
2021/12/18 07:27:46;;;;;;;25.95;10.95;;;8.30;99.90;;;;;;5115030;28;20038;-76
2021/12/18 07:30:13;;;;;;;19.58;9.00;;;8.40;99.90;;;;;;5079955;28;20106;-76
2021/12/18 07:32:39;;;;;;;18.10;8.30;;;8.30;99.90;;;;;;5114856;28;20434;-76
2021/12/18 07:35:06;;;;;;;15.68;7.68;;;8.40;99.90;;;;;;5096820;28;20039;-76
2021/12/18 07:37:32;;;;;;;20.17;9.23;;;8.40;99.90;;;;;;5079471;28;20106;-76
2021/12/18 07:39:58;;;;;;;19.35;8.57;;;8.40;99.90;;;;;;5096304;28;20066;-76
2021/12/18 07:42:24;;;;;;;22.65;9.73;;;8.40;99.90;;;;;;5114515;28;20722;-77
2021/12/18 07:44:50;;;;;;;22.75;9.48;;;8.40;99.90;;;;;;5091409;28;20041;-77
2021/12/18 07:47:17;;;;;;;24.95;9.85;;;8.40;99.90;;;;;;5101078;28;20039;-76
2021/12/18 07:49:43;;;;;;;29.05;10.73;;;8.40;99.90;;;;;;5065095;28;20388;-76
2021/12/18 07:52:09;;;;;;;28.45;11.63;;;8.40;99.90;;;;;;5079559;28;20032;-76
2021/12/18 07:54:35;;;;;;;30.05;11.82;;;8.40;99.90;;;;;;5096365;28;20036;-76
2021/12/18 07:57:01;;;;;;;25.73;10.65;;;8.40;99.90;;;;;;5096480;28;20026;-76
2021/12/18 07:59:26;;;;;;;27.52;11.07;;;8.40;99.90;;;;;;5090827;28;20024;-76
2021/12/18 08:01:52;;;;;;;29.00;10.95;;;8.40;99.90;;;;;;5114029;28;20032;-76
2021/12/18 08:04:18;;;;;;;25.70;10.82;;;8.50;99.90;;;;;;5075662;28;20104;-76
2021/12/18 08:06:43;;;;;;;28.13;10.70;;;8.50;99.90;;;;;;5094712;28;20035;-76
2021/12/18 08:09:09;;;;;;;24.70;10.13;;;8.50;99.90;;;;;;5114060;28;20023;-76
2021/12/18 08:11:35;;;;;;;21.52;8.77;;;8.50;99.90;;;;;;5075697;28;20059;-76
2021/12/18 08:14:00;;;;;;;22.83;8.70;;;8.50;99.90;;;;;;5076099;28;20119;-76
2021/12/18 08:16:26;;;;;;;17.92;8.50;;;8.50;99.90;;;;;;5061512;28;20080;-76
2021/12/18 08:18:51;;;;;;;18.58;8.27;;;8.50;99.90;;;;;;5112057;28;20461;-76
2021/12/18 08:21:17;;;;;;;21.00;8.85;;;8.50;99.90;;;;;;5095372;28;20408;-76
2021/12/18 08:23:43;;;;;;;19.75;7.90;;;8.50;99.90;;;;;;5092264;28;20032;-76
2021/12/18 08:26:08;;;;;;;18.67;8.05;;;8.50;99.90;;;;;;5074875;28;20024;-76
2021/12/18 08:28:34;;;;;;;18.25;7.95;;;8.50;99.90;;;;;;5094183;28;20043;-76
2021/12/18 08:31:00;;;;;;;18.08;7.65;;;8.50;99.90;;;;;;5094854;28;20028;-75
2021/12/18 08:33:26;;;;;;;19.73;8.13;;;8.50;99.90;;;;;;5102420;28;20036;-76
2021/12/18 08:35:52;;;;;;;24.95;9.00;;;8.50;99.90;;;;;;5074717;28;20032;-76
2021/12/18 08:38:18;;;;;;;23.10;8.80;;;8.50;99.90;;;;;;5092796;28;20031;-76
2021/12/18 08:40:45;;;;;;;20.52;7.78;;;8.50;99.90;;;;;;5066243;28;20028;-76
2021/12/18 08:43:11;;;;;;;21.08;8.32;;;8.50;99.90;;;;;;5054459;28;20073;-76
2021/12/18 08:45:36;;;;;;;22.10;8.35;;;8.50;99.90;;;;;;5060902;28;20051;-76
2021/12/18 08:48:02;;;;;;;17.92;8.00;;;8.50;99.90;;;;;;5058827;28;20035;-77
2021/12/18 08:50:28;;;;;;;22.33;8.80;;;8.60;99.90;;;;;;5075312;28;20063;-76
2021/12/18 08:52:54;;;;;;;19.17;8.10;;;8.60;99.90;;;;;;5111015;28;20031;-76
2021/12/18 08:55:21;;;;;;;44.25;10.23;;;8.60;99.90;;;;;;5073045;28;20063;-76
2021/12/18 08:57:48;;;;;;;35.78;10.18;;;8.60;99.90;;;;;;5092984;28;20099;-77
2021/12/18 09:00:16;;;;;;;37.25;10.65;;;8.60;99.90;;;;;;5095431;28;20032;-76
2021/12/18 09:02:44;;;;;;;26.50;9.98;;;8.60;99.90;;;;;;5092666;28;20020;-76
2021/12/18 09:05:10;;;;;;;29.55;10.70;;;8.60;99.90;;;;;;5113080;28;20177;-77
2021/12/18 09:07:36;;;;;;;24.60;9.25;;;8.60;99.90;;;;;;5098101;28;20508;-76
2021/12/18 09:10:04;;;;;;;25.48;10.77;;;8.60;99.90;;;;;;5077985;28;20032;-77
2021/12/18 09:12:30;;;;;;;22.52;9.23;;;8.60;99.90;;;;;;5074854;28;20051;-80
2021/12/18 09:14:56;;;;;;;26.17;9.77;;;8.60;99.90;;;;;;5064428;28;20048;-80
2021/12/18 09:17:21;;;;;;;23.63;9.43;;;8.70;99.90;;;;;;5093126;28;20089;-80
2021/12/18 09:19:47;;;;;;;26.25;10.32;;;8.70;99.90;;;;;;5093122;28;20095;-80
2021/12/18 09:22:12;;;;;;;37.55;14.70;;;8.70;99.90;;;;;;5093831;28;20051;-80
2021/12/18 09:24:39;;;;;;;53.03;19.17;;;8.60;99.90;;;;;;5093764;28;20472;-80
2021/12/18 09:27:06;;;;;;;24.02;10.32;;;8.60;99.90;;;;;;5085952;28;20040;-80
2021/12/18 09:29:32;;;;;;;27.67;10.95;;;8.60;99.90;;;;;;5087897;28;20506;-80
2021/12/18 09:31:57;;;;;;;26.33;11.27;;;8.60;99.90;;;;;;5094663;28;20040;-80
2021/12/18 09:34:26;;;;;;;20.42;8.77;;;8.60;99.90;;;;;;5080051;28;20035;-80
2021/12/18 09:36:52;;;;;;;54.67;20.55;;;8.60;99.90;;;;;;5115187;28;20035;-80
2021/12/18 09:39:18;;;;;;;49.30;19.73;;;8.70;99.90;;;;;;5079741;28;20036;-80
2021/12/18 09:41:48;;;;;;;27.63;12.50;;;8.60;99.90;;;;;;5078863;28;20291;-80
2021/12/18 09:44:14;;;;;;;29.98;13.95;;;8.70;99.90;;;;;;5095127;28;20059;-80
2021/12/18 09:46:39;;;;;;;24.60;11.75;;;8.60;99.90;;;;;;5095750;28;20062;-80
2021/12/18 09:49:06;;;;;;;18.95;9.90;;;8.70;99.90;;;;;;5095368;28;20131;-80
2021/12/18 09:51:33;;;;;;;14.40;7.13;;;8.60;99.90;;;;;;5096670;28;20027;-80
2021/12/18 09:53:59;;;;;;;15.13;7.35;;;8.70;99.90;;;;;;5094589;28;20819;-80
2021/12/18 09:56:25;;;;;;;16.73;6.95;;;8.70;99.90;;;;;;5092640;28;20461;-80
2021/12/18 09:58:52;;;;;;;15.50;7.00;;;8.70;99.90;;;;;;5095192;28;20080;-81
2021/12/18 10:01:18;;;;;;;11.82;6.68;;;8.70;99.90;;;;;;5113228;28;20492;-80
2021/12/18 10:03:51;;;;;;;14.85;6.85;;;8.70;99.90;;;;;;5109368;28;20047;-80
2021/12/18 10:06:34;;;;;;;14.73;6.55;;;8.70;99.90;;;;;;5094561;28;20023;-80
2021/12/18 10:09:05;;;;;;;18.13;7.28;;;8.80;99.90;;;;;;5094346;28;20023;-80
2021/12/18 10:11:31;;;;;;;17.52;8.00;;;8.80;99.90;;;;;;5094615;28;20059;-80
2021/12/18 10:13:59;;;;;;;13.45;6.72;;;8.80;99.90;;;;;;5110858;28;20462;-80
2021/12/18 10:16:27;;;;;;;11.63;6.03;;;8.80;99.90;;;;;;5094454;28;20056;-80
2021/12/18 10:18:55;;;;;;;10.15;5.00;;;8.80;99.90;;;;;;5108497;28;20054;-80
2021/12/18 10:21:23;;;;;;;11.13;5.35;;;8.80;99.90;;;;;;5096362;28;20429;-80
2021/12/18 10:23:50;;;;;;;9.73;5.28;;;8.80;99.90;;;;;;5091398;28;20090;-81
2021/12/18 10:26:38;;;;;;;9.70;5.22;;;8.80;99.90;;;;;;5099318;28;20020;-81
2021/12/18 10:29:07;;;;;;;10.38;4.95;;;8.80;99.90;;;;;;5102964;28;20104;-84
2021/12/18 10:31:45;;;;;;;10.43;4.83;;;8.80;99.90;;;;;;5088489;28;20062;-83
2021/12/18 10:34:21;;;;;;;9.55;5.13;;;8.80;99.90;;;;;;5083956;28;20173;-83
2021/12/18 10:37:12;;;;;;;9.48;5.57;;;8.80;99.90;;;;;;5113779;28;20076;-82
2021/12/18 10:39:53;;;;;;;8.32;5.10;;;8.90;99.90;;;;;;5080512;28;20047;-83
2021/12/18 10:42:20;;;;;;;7.38;4.10;;;8.90;99.90;;;;;;5096493;28;20027;-83
2021/12/18 10:45:02;;;;;;;8.20;4.72;;;8.90;99.90;;;;;;5094815;28;20952;-82
2021/12/18 10:47:52;;;;;;;7.15;4.45;;;8.90;99.90;;;;;;5103274;28;20365;-81
2021/12/18 10:50:48;;;;;;;7.03;4.32;;;8.90;99.90;;;;;;5088847;28;20114;-78
2021/12/18 10:53:16;;;;;;;8.30;4.15;;;8.90;99.90;;;;;;5082064;28;20044;-77
2021/12/18 10:55:44;;;;;;;6.93;4.10;;;8.90;99.90;;;;;;5081301;28;20105;-78
2021/12/18 10:58:16;;;;;;;9.45;4.55;;;8.90;99.90;;;;;;5106786;28;20027;-77
2021/12/18 11:00:46;;;;;;;8.57;4.47;;;8.90;99.90;;;;;;5097403;28;20111;-78
2021/12/18 11:03:14;;;;;;;9.32;4.85;;;9.00;99.90;;;;;;5113689;28;20438;-77
2021/12/18 11:05:40;;;;;;;9.75;4.75;;;9.00;99.90;;;;;;5096900;28;20084;-77
2021/12/18 11:08:11;;;;;;;8.90;4.90;;;8.90;99.90;;;;;;5096888;28;20032;-77
2021/12/18 11:10:54;;;;;;;9.55;5.47;;;9.00;99.90;;;;;;5088472;28;20035;-78
2021/12/18 11:13:38;;;;;;;10.43;5.18;;;9.00;99.90;;;;;;5097101;28;20027;-78
2021/12/18 11:16:05;;;;;;;11.07;5.43;;;9.00;99.90;;;;;;5087192;28;20039;-77
2021/12/18 11:18:33;;;;;;;10.18;5.18;;;9.00;99.90;;;;;;5104369;28;20016;-77
2021/12/18 11:20:59;;;;;;;12.00;6.05;;;9.00;99.90;;;;;;5071845;28;20028;-77
2021/12/18 11:23:36;;;;;;;15.13;5.63;;;9.00;99.90;;;;;;5098571;28;20027;-77
2021/12/18 11:26:02;;;;;;;12.18;5.72;;;9.00;99.90;;;;;;5086691;28;20024;-77
2021/12/18 11:28:30;;;;;;;9.55;5.25;;;8.90;99.90;;;;;;5070828;28;20480;-77
2021/12/18 11:30:56;;;;;;;12.52;6.47;;;9.00;99.90;;;;;;5096252;28;20034;-77
2021/12/18 11:33:22;;;;;;;10.10;5.65;;;8.90;99.90;;;;;;5114516;28;20494;-77
2021/12/18 11:35:48;;;;;;;12.23;5.90;;;9.00;99.90;;;;;;5067820;28;20031;-77
2021/12/18 11:38:15;;;;;;;12.45;6.03;;;8.90;99.90;;;;;;5072393;28;20028;-77
2021/12/18 11:40:41;;;;;;;10.23;4.93;;;8.90;99.90;;;;;;5115055;28;20365;-77
2021/12/18 11:43:27;;;;;;;10.77;5.85;;;8.90;99.90;;;;;;5113207;28;20027;-77
2021/12/18 11:45:52;;;;;;;15.15;6.38;;;8.80;99.90;;;;;;5114959;28;20115;-77
2021/12/18 11:48:18;;;;;;;12.57;6.28;;;8.90;99.90;;;;;;5079542;28;20036;-77
2021/12/18 11:50:45;;;;;;;10.35;5.40;;;8.90;99.90;;;;;;5096080;28;20051;-78
2021/12/18 11:53:13;;;;;;;9.80;5.30;;;8.90;99.90;;;;;;5095960;28;20023;-77
2021/12/18 11:55:58;;;;;;;10.02;5.15;;;8.90;99.90;;;;;;5096512;28;20543;-77
2021/12/18 11:58:42;;;;;;;8.82;5.35;;;8.90;99.90;;;;;;5114736;28;20035;-77
2021/12/18 12:01:19;;;;;;;9.70;4.85;;;8.80;99.90;;;;;;5114384;28;20020;-77
2021/12/18 12:03:51;;;;;;;8.80;4.57;;;8.80;99.90;;;;;;5114172;28;20479;-77
2021/12/18 12:06:28;;;;;;;8.55;4.13;;;8.80;99.90;;;;;;5113947;28;20380;-77
2021/12/18 12:09:29;;;;;;;7.93;4.80;;;8.80;99.90;;;;;;5092009;28;20044;-77
2021/12/18 12:12:09;;;;;;;7.63;4.15;;;8.80;99.90;;;;;;5110547;28;20380;-77
2021/12/18 12:14:41;;;;;;;7.68;4.32;;;8.80;99.90;;;;;;5096005;28;20134;-77
2021/12/18 12:17:17;;;;;;;6.72;4.32;;;8.80;99.90;;;;;;5095944;28;20110;-77
2021/12/18 12:19:49;;;;;;;9.05;5.20;;;8.80;99.90;;;;;;5062625;28;20508;-76
2021/12/18 12:22:42;;;;;;;9.07;4.18;;;8.80;99.90;;;;;;5114275;28;20073;-77
2021/12/18 12:25:10;;;;;;;9.50;5.70;;;8.80;99.90;;;;;;5081577;28;20034;-77
2021/12/18 12:27:39;;;;;;;9.77;5.78;;;8.80;99.90;;;;;;5111167;28;20019;-77
2021/12/18 12:30:25;;;;;;;13.00;5.82;;;8.80;99.90;;;;;;5112090;28;20027;-78
2021/12/18 12:32:55;;;;;;;10.70;5.22;;;8.80;99.90;;;;;;5095753;28;20092;-77
2021/12/18 12:35:21;;;;;;;9.27;5.30;;;8.80;99.90;;;;;;5094886;28;20032;-77
2021/12/18 12:37:47;;;;;;;8.80;4.60;;;8.70;99.90;;;;;;5095939;28;20027;-77
2021/12/18 12:40:35;;;;;;;8.65;4.32;;;8.70;99.90;;;;;;5091221;28;20418;-77
2021/12/18 12:43:22;;;;;;;12.15;4.72;;;8.80;99.90;;;;;;5091920;28;20028;-77
2021/12/18 12:45:50;;;;;;;5.35;3.42;;;8.80;99.90;;;;;;5110495;28;20507;-77
2021/12/18 12:48:17;;;;;;;5.22;3.45;;;8.80;99.90;;;;;;5076853;28;20040;-77
2021/12/18 12:50:53;;;;;;;6.30;3.60;;;8.80;99.90;;;;;;5112608;28;20115;-77
2021/12/18 12:53:19;;;;;;;4.55;3.08;;;8.90;99.90;;;;;;5079490;28;20028;-77
2021/12/18 12:55:47;;;;;;;4.28;2.95;;;8.90;99.90;;;;;;5113191;28;20027;-77
2021/12/18 12:58:23;;;;;;;6.28;2.67;;;8.90;99.90;;;;;;5113433;28;20042;-77
2021/12/18 13:00:55;;;;;;;4.43;2.78;;;8.90;99.90;;;;;;5113172;28;20051;-77
2021/12/18 13:03:24;;;;;;;4.30;2.70;;;8.90;99.90;;;;;;5112865;28;20084;-77
2021/12/18 13:05:50;;;;;;;;;;;8.90;99.90;;;;;;5113256;28;20028;-77
2021/12/18 13:08:16;;;;;;;4.78;2.65;;;8.90;99.90;;;;;;5112828;28;20245;-76
2021/12/18 13:10:43;;;;;;;7.05;3.30;;;9.00;99.90;;;;;;5113283;28;20030;-77
2021/12/18 13:13:15;;;;;;;5.07;3.20;;;8.90;99.90;;;;;;5111893;28;20106;-77
2021/12/18 13:16:14;;;;;;;4.43;3.30;;;8.90;99.90;;;;;;5091163;28;20125;-77
2021/12/18 13:18:44;;;;;;;5.53;3.60;;;8.90;99.90;;;;;;5085202;28;20038;-77
2021/12/18 13:21:26;;;;;;;5.90;3.60;;;8.90;99.90;;;;;;5113175;28;20093;-77
2021/12/18 13:24:02;;;;;;;5.25;3.13;;;8.90;99.90;;;;;;5103717;28;20388;-77
2021/12/18 13:26:32;;;;;;;4.68;3.08;;;8.90;99.90;;;;;;5099966;28;20611;-77
2021/12/18 13:29:06;;;;;;;8.15;3.67;;;8.80;99.90;;;;;;5105522;28;20035;-77
2021/12/18 13:31:34;;;;;;;12.80;3.78;;;8.80;99.90;;;;;;5074656;28;20032;-77
2021/12/18 13:34:04;;;;;;;4.63;3.33;;;8.90;99.90;;;;;;5074367;28;20028;-77
2021/12/18 13:36:44;;;;;;;5.95;3.33;;;8.80;99.90;;;;;;5093480;28;20047;-77